Terminal Aerodrome Forecast
Issued by NWS

Home | Current Version | Previous Version | Graphics & Text | Print | Product List | Glossary On
Versions: 1 2 3 4 5 6 7 8 9 10 11 12 13 14 15 16 17 18 19 20 21 22 23 24 25
000
FTUS43 KLOT 090859 AAA
TAFORD
TAF AMD
KORD 090859Z 0909/1012 27012KT P6SM FEW020 SCT050
     FM091400 28010KT P6SM SCT025 BKN035
     FM100000 27008KT P6SM SCT025 BKN150=

USA.gov is the U.S. government's official web portal to all federal, state and local government web resources and services.